sensor_id;sensor_type;location;lat;lon;timestamp;pressure;altitude;pressure_sealevel;temperature;humidity
26915;BME280;14480;52.608;13.416;2023-05-24T08:32:16;144035.75;;;0.20;100.00
26915;BME280;14480;52.608;13.416;2023-05-24T08:37:19;143857.88;;;-0.52;100.00
26915;BME280;14480;52.608;13.416;2023-05-24T08:42:23;144012.09;;;0.11;100.00
26915;BME280;14480;52.608;13.416;2023-05-24T08:47:29;144051.94;;;0.27;100.00
26915;BME280;14480;52.608;13.416;2023-05-24T08:52:34;144120.38;;;0.55;100.00
26915;BME280;14480;52.608;13.416;2023-05-24T08:57:38;144139.06;;;0.63;100.00
26915;BME280;14480;52.608;13.416;2023-05-24T09:02:44;144231.19;;;1.00;100.00
26915;BME280;14480;52.608;13.416;2023-05-24T09:07:48;144233.66;;;1.01;100.00
26915;BME280;14480;52.608;13.416;2023-05-24T09:12:54;144231.19;;;1.00;100.00
26915;BME280;14480;52.608;13.416;2023-05-24T09:18:00;144234.91;;;1.02;100.00
26915;BME280;14480;52.608;13.416;2023-05-24T09:23:04;144212.50;;;0.93;100.00
26915;BME280;14480;52.608;13.416;2023-05-24T09:28:08;144074.34;;;0.36;100.00
26915;BME280;14480;52.608;13.416;2023-05-24T09:33:17;144095.47;;;0.45;100.00
26915;BME280;14480;52.608;13.416;2023-05-24T09:38:20;144172.66;;;0.76;100.00
26915;BME280;14480;52.608;13.416;2023-05-24T09:43:24;144283.50;;;1.22;100.00
26915;BME280;14480;52.608;13.416;2023-05-24T09:48:30;144221.25;;;0.96;100.00
26915;BME280;14480;52.608;13.416;2023-05-24T09:53:34;144337.06;;;1.43;100.00
26915;BME280;14480;52.608;13.416;2023-05-24T09:58:38;144441.72;;;1.86;99.67
26915;BME280;14480;52.608;13.416;2023-05-24T10:03:52;144406.81;;;1.72;84.77
26915;BME280;14480;52.608;13.416;2023-05-24T10:08:56;144378.13;;;1.60;88.83
26915;BME280;14480;52.608;13.416;2023-05-24T10:13:59;144354.50;;;1.51;93.26
26915;BME280;14480;52.608;13.416;2023-05-24T10:19:07;144423.00;;;1.79;88.02
26915;BME280;14480;52.608;13.416;2023-05-24T10:24:16;144442.97;;;1.87;87.24
26915;BME280;14480;52.608;13.416;2023-05-24T10:29:25;144452.91;;;1.91;88.44
26915;BME280;14480;52.608;13.416;2023-05-24T10:34:31;144430.47;;;1.82;86.59
26915;BME280;14480;52.608;13.416;2023-05-24T10:39:35;144374.41;;;1.59;86.95
26915;BME280;14480;52.608;13.416;2023-05-24T10:44:38;144330.84;;;1.41;86.93
26915;BME280;14480;52.608;13.416;2023-05-24T10:49:50;144251.13;;;1.08;87.85
26915;BME280;14480;52.608;13.416;2023-05-24T10:55:00;144070.56;;;0.35;89.33
26915;BME280;14480;52.608;13.416;2023-05-24T11:05:49;144281.00;;;1.21;87.79
26915;BME280;14480;52.608;13.416;2023-05-24T11:11:00;144302.19;;;1.29;87.76
26915;BME280;14480;52.608;13.416;2023-05-24T11:16:33;144283.50;;;1.22;86.47
26915;BME280;14480;52.608;13.416;2023-05-24T11:21:43;144228.69;;;0.99;87.52
26915;BME280;14480;52.608;13.416;2023-05-24T11:26:48;144177.63;;;0.78;88.65
26915;BME280;14480;52.608;13.416;2023-05-24T11:31:52;144236.16;;;1.02;87.70
26915;BME280;14480;52.608;13.416;2023-05-24T11:37:02;144332.09;;;1.41;86.01
26915;BME280;14480;52.608;13.416;2023-05-24T11:42:07;144384.41;;;1.63;83.30
26915;BME280;14480;52.608;13.416;2023-05-24T11:47:11;144327.09;;;1.39;79.34
26915;BME280;14480;52.608;13.416;2023-05-24T11:52:16;144371.91;;;1.58;80.30
26915;BME280;14480;52.608;13.416;2023-05-24T11:57:22;144195.09;;;0.85;82.25
26915;BME280;14480;52.608;13.416;2023-05-24T12:02:28;144167.69;;;0.74;83.01
26915;BME280;14480;52.608;13.416;2023-05-24T12:07:34;143962.38;;;-0.10;84.38
26915;BME280;14480;52.608;13.416;2023-05-24T12:12:41;144102.97;;;0.48;85.09
26915;BME280;14480;52.608;13.416;2023-05-24T12:17:47;144217.50;;;0.95;81.20
26915;BME280;14480;52.608;13.416;2023-05-24T12:22:54;144350.72;;;1.49;80.87
26915;BME280;14480;52.608;13.416;2023-05-24T12:27:58;144489.03;;;2.05;78.29
26915;BME280;14480;52.608;13.416;2023-05-24T12:33:01;144597.50;;;2.50;76.75
26915;BME280;14480;52.608;13.416;2023-05-24T12:38:07;144638.66;;;2.67;76.78
26915;BME280;14480;52.608;13.416;2023-05-24T12:43:11;144718.44;;;2.99;73.28
26915;BME280;14480;52.608;13.416;2023-05-24T12:48:15;144722.19;;;3.01;72.88
26915;BME280;14480;52.608;13.416;2023-05-24T12:53:20;144606.22;;;2.53;72.51
26915;BME280;14480;52.608;13.416;2023-05-24T12:58:27;144606.22;;;2.53;73.96
26915;BME280;14480;52.608;13.416;2023-05-24T13:03:31;144648.63;;;2.71;72.76
26915;BME280;14480;52.608;13.416;2023-05-24T13:08:37;144487.81;;;2.05;74.09
26915;BME280;14480;52.608;13.416;2023-05-24T13:13:42;144461.63;;;1.94;73.14
26915;BME280;14480;52.608;13.416;2023-05-24T13:18:47;144573.81;;;2.40;72.01
26915;BME280;14480;52.608;13.416;2023-05-24T13:23:52;144409.28;;;1.73;72.65
26915;BME280;14480;52.608;13.416;2023-05-24T13:28:55;144384.41;;;1.63;72.92
26915;BME280;14480;52.608;13.416;2023-05-24T13:34:19;144480.34;;;2.02;72.71
26915;BME280;14480;52.608;13.416;2023-05-24T13:39:24;144577.53;;;2.42;72.39
26915;BME280;14480;52.608;13.416;2023-05-24T13:44:29;144495.25;;;2.08;71.90
26915;BME280;14480;52.608;13.416;2023-05-24T13:49:33;144572.56;;;2.40;73.53
26915;BME280;14480;52.608;13.416;2023-05-24T13:54:38;144531.44;;;2.23;71.57
26915;BME280;14480;52.608;13.416;2023-05-24T13:59:42;144475.34;;;2.00;72.85
26915;BME280;14480;52.608;13.416;2023-05-24T14:04:45;144360.72;;;1.53;73.22
26915;BME280;14480;52.608;13.416;2023-05-24T14:09:50;144373.16;;;1.58;73.92
26915;BME280;14480;52.608;13.416;2023-05-24T14:14:54;144445.44;;;1.88;73.50
26915;BME280;14480;52.608;13.416;2023-05-24T14:20:01;144432.97;;;1.83;75.85
26915;BME280;14480;52.608;13.416;2023-05-24T14:25:07;144425.50;;;1.80;79.02
26915;BME280;14480;52.608;13.416;2023-05-24T14:30:11;144487.81;;;2.05;77.68
26915;BME280;14480;52.608;13.416;2023-05-24T14:35:14;144465.34;;;1.96;73.83
26915;BME280;14480;52.608;13.416;2023-05-24T14:40:19;144319.59;;;1.36;73.04
26915;BME280;14480;52.608;13.416;2023-05-24T14:45:24;144399.34;;;1.69;76.62
26915;BME280;14480;52.608;13.416;2023-05-24T14:50:27;144472.88;;;1.99;74.45
26915;BME280;14480;52.608;13.416;2023-05-24T14:55:33;144457.91;;;1.93;75.05
26915;BME280;14480;52.608;13.416;2023-05-24T15:00:37;144430.47;;;1.82;73.06
26915;BME280;14480;52.608;13.416;2023-05-24T15:05:44;144484.06;;;2.03;74.35
26915;BME280;14480;52.608;13.416;2023-05-24T15:11:11;144416.78;;;1.76;74.46
26915;BME280;14480;52.608;13.416;2023-05-24T15:16:44;144369.44;;;1.57;75.59
26915;BME280;14480;52.608;13.416;2023-05-24T15:21:48;144378.13;;;1.60;77.45
26915;BME280;14480;52.608;13.416;2023-05-24T15:26:53;144347.00;;;1.48;76.58
26915;BME280;14480;52.608;13.416;2023-05-24T15:31:56;144320.84;;;1.37;75.92
26915;BME280;14480;52.608;13.416;2023-05-24T15:37:02;144334.56;;;1.42;76.41
26915;BME280;14480;52.608;13.416;2023-05-24T15:42:10;144328.34;;;1.40;78.21
26915;BME280;14480;52.608;13.416;2023-05-24T15:47:14;144335.81;;;1.43;84.60
26915;BME280;14480;52.608;13.416;2023-05-24T15:52:21;144363.22;;;1.54;79.27
26915;BME280;14480;52.608;13.416;2023-05-24T15:57:31;144313.38;;;1.34;77.39
26915;BME280;14480;52.608;13.416;2023-05-24T16:02:34;144290.94;;;1.25;78.77
26915;BME280;14480;52.608;13.416;2023-05-24T16:07:38;144276.03;;;1.19;78.78
26915;BME280;14480;52.608;13.416;2023-05-24T16:12:43;144263.56;;;1.13;79.76
26915;BME280;14480;52.608;13.416;2023-05-24T16:17:49;144304.69;;;1.30;77.63
26915;BME280;14480;52.608;13.416;2023-05-24T16:22:53;144259.81;;;1.12;78.83
26915;BME280;14480;52.608;13.416;2023-05-24T16:27:59;144256.09;;;1.10;78.61
26915;BME280;14480;52.608;13.416;2023-05-24T16:33:03;144263.56;;;1.13;79.44
26915;BME280;14480;52.608;13.416;2023-05-24T16:38:09;144215.03;;;0.94;79.46
26915;BME280;14480;52.608;13.416;2023-05-24T16:43:17;144205.03;;;0.90;80.35
26915;BME280;14480;52.608;13.416;2023-05-24T16:48:22;144198.81;;;0.87;80.58
26915;BME280;14480;52.608;13.416;2023-05-24T16:53:30;144140.31;;;0.63;81.88
26915;BME280;14480;52.608;13.416;2023-05-24T16:58:50;144132.84;;;0.60;82.07
26915;BME280;14480;52.608;13.416;2023-05-24T17:04:12;144080.56;;;0.39;81.71
26915;BME280;14480;52.608;13.416;2023-05-24T17:09:16;144076.84;;;0.37;81.91
26915;BME280;14480;52.608;13.416;2023-05-24T17:14:26;144078.09;;;0.38;82.91
26915;BME280;14480;52.608;13.416;2023-05-24T17:19:30;144080.56;;;0.39;84.62
26915;BME280;14480;52.608;13.416;2023-05-24T17:24:34;144076.84;;;0.37;84.62
26915;BME280;14480;52.608;13.416;2023-05-24T17:29:39;144053.19;;;0.27;85.20
26915;BME280;14480;52.608;13.416;2023-05-24T17:34:45;143992.22;;;0.03;87.07
26915;BME280;14480;52.608;13.416;2023-05-24T17:39:49;143937.47;;;-0.20;88.55
26915;BME280;14480;52.608;13.416;2023-05-24T17:44:57;143925.00;;;-0.25;90.29
26915;BME280;14480;52.608;13.416;2023-05-24T17:50:03;143920.03;;;-0.27;89.99
26915;BME280;14480;52.608;13.416;2023-05-24T17:55:09;143885.22;;;-0.41;91.40
26915;BME280;14480;52.608;13.416;2023-05-24T18:00:14;143818.09;;;-0.69;93.22
26915;BME280;14480;52.608;13.416;2023-05-24T18:05:21;143794.47;;;-0.78;95.16
26915;BME280;14480;52.608;13.416;2023-05-24T18:10:28;143747.22;;;-0.98;95.64
26915;BME280;14480;52.608;13.416;2023-05-24T18:15:33;143721.09;;;-1.08;96.05
26915;BME280;14480;52.608;13.416;2023-05-24T18:20:37;143682.59;;;-1.24;97.01
26915;BME280;14480;52.608;13.416;2023-05-24T18:25:43;143651.53;;;-1.37;98.28
26915;BME280;14480;52.608;13.416;2023-05-24T18:30:48;143601.81;;;-1.57;100.00
26915;BME280;14480;52.608;13.416;2023-05-24T18:35:53;143564.56;;;-1.72;100.00
26915;BME280;14480;52.608;13.416;2023-05-24T18:40:56;143512.38;;;-1.94;100.00
26915;BME280;14480;52.608;13.416;2023-05-24T18:46:03;143477.59;;;-2.08;100.00
26915;BME280;14480;52.608;13.416;2023-05-24T18:51:10;143426.69;;;-2.29;100.00
26915;BME280;14480;52.608;13.416;2023-05-24T18:56:13;143388.16;;;-2.45;100.00
26915;BME280;14480;52.608;13.416;2023-05-24T19:01:21;143341.03;;;-2.64;100.00
26915;BME280;14480;52.608;13.416;2023-05-24T19:06:24;143302.50;;;-2.80;100.00
26915;BME280;14480;52.608;13.416;2023-05-24T19:11:29;143256.63;;;-2.99;100.00
26915;BME280;14480;52.608;13.416;2023-05-24T19:16:34;143220.59;;;-3.13;100.00
26915;BME280;14480;52.608;13.416;2023-05-24T19:21:40;143158.59;;;-3.39;100.00
26915;BME280;14480;52.608;13.416;2023-05-24T19:26:44;143126.34;;;-3.52;100.00
26915;BME280;14480;52.608;13.416;2023-05-24T19:31:49;143092.84;;;-3.66;100.00
26915;BME280;14480;52.608;13.416;2023-05-24T19:36:53;143061.84;;;-3.78;100.00
26915;BME280;14480;52.608;13.416;2023-05-24T19:41:57;143025.91;;;-3.93;100.00
26915;BME280;14480;52.608;13.416;2023-05-24T19:47:02;143004.81;;;-4.02;100.00
26915;BME280;14480;52.608;13.416;2023-05-24T19:52:08;142972.59;;;-4.15;100.00
26915;BME280;14480;52.608;13.416;2023-05-24T19:57:11;142935.38;;;-4.30;100.00
26915;BME280;14480;52.608;13.416;2023-05-24T20:02:16;142913.09;;;-4.39;100.00
26915;BME280;14480;52.608;13.416;2023-05-24T20:07:22;142879.59;;;-4.53;100.00
26915;BME280;14480;52.608;13.416;2023-05-24T20:12:25;142846.16;;;-4.67;100.00
26915;BME280;14480;52.608;13.416;2023-05-24T20:17:33;142817.66;;;-4.79;100.00
26915;BME280;14480;52.608;13.416;2023-05-24T20:22:36;142791.63;;;-4.89;100.00
26915;BME280;14480;52.608;13.416;2023-05-24T20:27:40;142753.25;;;-5.05;100.00
26915;BME280;14480;52.608;13.416;2023-05-24T20:32:45;142729.72;;;-5.15;100.00
26915;BME280;14480;52.608;13.416;2023-05-24T20:37:49;142706.16;;;-5.24;100.00
26915;BME280;14480;52.608;13.416;2023-05-24T20:42:52;142685.09;;;-5.33;100.00
26915;BME280;14480;52.608;13.416;2023-05-24T20:47:57;142655.38;;;-5.45;100.00
26915;BME280;14480;52.608;13.416;2023-05-24T20:53:01;142649.22;;;-5.48;100.00
26915;BME280;14480;52.608;13.416;2023-05-24T20:58:08;142623.19;;;-5.59;100.00
26915;BME280;14480;52.608;13.416;2023-05-24T21:03:13;142608.38;;;-5.65;100.00
26915;BME280;14480;52.608;13.416;2023-05-24T21:08:17;142597.19;;;-5.69;100.00
26915;BME280;14480;52.608;13.416;2023-05-24T21:13:20;142584.84;;;-5.74;100.00
26915;BME280;14480;52.608;13.416;2023-05-24T21:18:28;142562.56;;;-5.83;100.00
26915;BME280;14480;52.608;13.416;2023-05-24T21:23:35;142556.38;;;-5.86;100.00
26915;BME280;14480;52.608;13.416;2023-05-24T21:28:38;142552.66;;;-5.88;100.00
26915;BME280;14480;52.608;13.416;2023-05-24T21:33:43;142551.44;;;-5.88;100.00
26915;BME280;14480;52.608;13.416;2023-05-24T21:38:47;142536.59;;;-5.94;100.00
26915;BME280;14480;52.608;13.416;2023-05-24T21:43:50;142536.59;;;-5.94;100.00
26915;BME280;14480;52.608;13.416;2023-05-24T21:48:55;142529.19;;;-5.97;100.00
26915;BME280;14480;52.608;13.416;2023-05-24T21:54:01;142508.13;;;-6.06;100.00
26915;BME280;14480;52.608;13.416;2023-05-24T21:59:05;142500.72;;;-6.09;100.00
26915;BME280;14480;52.608;13.416;2023-05-24T22:04:10;142494.53;;;-6.11;100.00
26915;BME280;14480;52.608;13.416;2023-05-24T22:09:14;142480.91;;;-6.17;100.00
26915;BME280;14480;52.608;13.416;2023-05-24T22:14:18;142462.38;;;-6.25;100.00
